»·PEaware :: AWE180 KPHX-KSAN

AWE180 :: KPHX-KSAN

FLIGHT INFORMATION

Flight Status: Arrived
Operator:
US Airways
More flights by this operator :: More flights under this callsign
Pilot: Etienne B. (28927)
Aircraft: AIRBUS A320
(A320)
More flights by this aircraft type
Origin: KPHX Phoenix Sky Harbor Intl
United States
Destination: KSAN San Diego Intl-Lindbergh
United States
More flights between these airports :: More routes between these airports
Route: FYRBD1 MOHAK J2 HOGGZ LUCKI1
File this flight plan on PilotEdge
Remarks: RMK / SIMBRIEF
Altitude:
(Current/Filed)
34,000ft
Speed:
(Current/Filed)
438kts
Departed: 17-May-20 04:48 PM
Arrived: 17-May-20 05:39 PM
Distance/Time
Traveled:
264nm/0:50
Distance/Time
To Go:
Arrived

Flight Plot

Page will automatically refresh every two minutes.

Flight plan parsing failed; only flown route is shown


Map Options




Map Legend


Flown Route
Filed Route
Departure Airport
Arrival Airport
Navaid (VOR, NDB)
Fix

Horizontal Profiles

Position Reports

Time Latitude Longitude Heading Altitude Ground
Speed
17-May-20 16:31 33.433928 -111.999878 83 1128ft 0kts
17-May-20 16:32 33.433928 -111.999878 83 1128ft 0kts
17-May-20 16:33 33.433928 -111.999878 83 1128ft 0kts
17-May-20 16:34 33.433928 -111.999878 83 1128ft 0kts
17-May-20 16:35 33.433928 -111.999878 83 1128ft 0kts
17-May-20 16:36 33.433928 -111.999878 83 1128ft 0kts
17-May-20 16:37 33.433928 -111.999878 83 1128ft 0kts
17-May-20 16:38 33.433928 -111.999878 83 1128ft 0kts
17-May-20 16:39 33.433928 -111.999878 83 1128ft 0kts
17-May-20 16:40 33.433928 -111.999878 83 1128ft 0kts
17-May-20 16:41 33.433924 -111.999974 99 1128ft 2kts
17-May-20 16:42 33.434325 -112.000355 183 1128ft 0kts
17-May-20 16:43 33.434339 -112.000354 182 1128ft 0kts
17-May-20 16:43 33.434234 -112.000360 181 1128ft 2kts
17-May-20 16:45 33.433499 -112.000370 180 1128ft 4kts
17-May-20 16:46 33.432840 -111.995748 90 1125ft 23kts
17-May-20 16:46 33.432100 -111.992637 216 1126ft 6kts
17-May-20 16:48 33.431046 -112.014490 269 1187ft 162kts
17-May-20 16:48 33.429836 -112.063895 262 2990ft 195kts
17-May-20 16:49 33.407277 -112.133725 247 5046ft 255kts
17-May-20 16:50 33.353173 -112.181015 161 7572ft 289kts
17-May-20 16:51 33.277918 -112.152839 183 8580ft 287kts
17-May-20 16:52 33.225661 -112.214137 259 10776ft 316kts
17-May-20 16:53 33.190321 -112.313081 230 12622ft 340kts
17-May-20 16:54 33.131637 -112.403750 231 14875ft 350kts
17-May-20 16:55 33.071408 -112.496855 231 16900ft 362kts
17-May-20 16:56 33.008828 -112.593393 231 18763ft 373kts
17-May-20 16:57 32.953215 -112.698475 257 20460ft 390kts
17-May-20 16:58 32.935945 -112.826994 258 22145ft 398kts
17-May-20 16:59 32.918100 -112.958554 258 23759ft 405kts
17-May-20 17:00 32.899872 -113.091888 258 25226ft 412kts
17-May-20 17:01 32.881174 -113.227579 259 26565ft 420kts
17-May-20 17:02 32.861930 -113.366065 259 27792ft 428kts
17-May-20 17:03 32.829653 -113.501716 257 28865ft 433kts
17-May-20 17:04 32.820283 -113.646149 261 29865ft 441kts
17-May-20 17:05 32.801858 -113.789616 258 31187ft 437kts
17-May-20 17:06 32.781716 -113.931261 258 32421ft 434kts
17-May-20 17:07 32.775185 -114.073870 269 33533ft 433kts
17-May-20 17:08 32.780806 -114.216456 271 33859ft 430kts
17-May-20 17:09 32.786392 -114.358310 272 33861ft 432kts
17-May-20 17:10 32.817826 -114.496448 286 33842ft 435kts
17-May-20 17:11 32.855409 -114.633365 286 33821ft 434kts
17-May-20 17:12 32.878452 -114.772300 266 33828ft 431kts
17-May-20 17:13 32.875179 -114.914893 266 33094ft 431kts
17-May-20 17:14 32.871918 -115.055372 266 31168ft 418kts
17-May-20 17:15 32.868730 -115.185871 266 29396ft 382kts
17-May-20 17:16 32.865612 -115.310500 266 27641ft 372kts
17-May-20 17:17 32.852405 -115.429997 259 25917ft 361kts
17-May-20 17:18 32.834967 -115.546072 257 24236ft 351kts
17-May-20 17:19 32.816498 -115.658157 257 22594ft 341kts
17-May-20 17:20 32.798490 -115.767493 257 20970ft 333kts
17-May-20 17:21 32.783178 -115.874624 263 19371ft 327kts
17-May-20 17:22 32.775256 -115.981306 263 17792ft 320kts
17-May-20 17:23 32.767397 -116.085426 263 16249ft 314kts
17-May-20 17:24 32.759601 -116.187662 263 14743ft 308kts
17-May-20 17:25 32.751902 -116.287555 263 13351ft 299kts
17-May-20 17:26 32.744400 -116.384329 263 12001ft 291kts
17-May-20 17:27 32.736975 -116.479201 263 10615ft 286kts
17-May-20 17:28 32.728514 -116.571937 262 9249ft 280kts
17-May-20 17:29 32.719622 -116.663090 262 7918ft 275kts
17-May-20 17:30 32.712570 -116.753067 263 6614ft 270kts
17-May-20 17:31 32.701336 -116.837867 248 5821ft 246kts
17-May-20 17:32 32.679014 -116.910600 250 5125ft 228kts
17-May-20 17:33 32.682642 -116.981641 283 4272ft 221kts
17-May-20 17:34 32.697809 -117.046705 287 2528ft 189kts
17-May-20 17:35 32.711369 -117.098589 285 1733ft 139kts
17-May-20 17:36 32.722402 -117.144164 286 804ft 150kts
17-May-20 17:37 32.732808 -117.186553 286 26ft 88kts
17-May-20 17:38 32.734402 -117.194612 247 26ft 0kts
17-May-20 17:39 32.734402 -117.194612 247 26ft 0kts
17-May-20 17:40 32.734200 -117.196665 284 26ft 11kts
17-May-20 17:41 32.734272 -117.199664 196 26ft 4kts
17-May-20 17:42 32.733528 -117.200250 256 26ft 3kts

Navigation Log

Ident Type
Flight plan parsing failed, navigation log unavailable